createdAt,value
2018-12-11T00:00:03.449Z,99214.45
2018-12-11T00:02:33.184Z,99219.03
2018-12-11T00:05:02.829Z,99205.91
2018-12-11T00:07:32.540Z,99220.83
2018-12-11T00:10:02.180Z,99206.03
2018-12-11T00:12:31.845Z,99232.41
2018-12-11T00:15:01.504Z,99228.16
2018-12-11T00:17:31.186Z,99243.22
2018-12-11T00:20:00.871Z,99240.60
2018-12-11T00:22:30.537Z,99250.02
2018-12-11T00:25:00.239Z,99250.83
2018-12-11T00:27:29.946Z,99250.34
2018-12-11T00:29:59.733Z,99270.52
2018-12-11T00:32:29.351Z,99268.84
2018-12-11T00:34:59.021Z,99270.84
2018-12-11T00:37:28.640Z,99281.08
2018-12-11T00:39:58.326Z,99281.28
2018-12-11T00:42:28.015Z,99285.92
2018-12-11T00:44:57.661Z,99282.05
2018-12-11T00:47:27.327Z,99278.83
2018-12-11T00:49:56.968Z,99273.17
2018-12-11T00:52:26.664Z,99288.12
2018-12-11T00:54:56.281Z,99291.22
2018-12-11T00:57:26.018Z,99285.15
2018-12-11T00:59:55.664Z,99295.25
2018-12-11T01:02:25.348Z,99285.48
2018-12-11T01:04:55.033Z,99277.41
2018-12-11T01:07:24.700Z,99289.64
2018-12-11T01:09:54.317Z,99274.03
2018-12-11T01:12:24.001Z,99284.37
2018-12-11T01:14:53.677Z,99282.50
2018-12-11T01:17:23.388Z,99291.34
2018-12-11T01:19:53.092Z,99288.17
2018-12-11T01:22:22.788Z,99269.84
2018-12-11T01:24:52.617Z,99288.34
2018-12-11T01:27:22.310Z,99290.20
2018-12-11T01:29:51.943Z,99290.53
2018-12-11T01:32:21.793Z,99279.28
2018-12-11T01:34:51.469Z,99288.70
2018-12-11T01:37:21.159Z,99284.74
2018-12-11T01:39:50.824Z,99274.28
2018-12-11T01:42:20.532Z,99276.06
2018-12-11T01:44:50.209Z,99282.30
2018-12-11T01:47:19.841Z,99277.45
2018-12-11T01:49:49.519Z,99278.67
2018-12-11T01:52:19.148Z,99262.05
2018-12-11T01:54:48.860Z,99274.27
2018-12-11T01:57:18.493Z,99284.58
2018-12-11T01:59:48.136Z,99282.18
2018-12-11T02:02:17.825Z,99281.28
2018-12-11T02:04:47.485Z,99282.34
2018-12-11T02:07:17.129Z,99280.23
2018-12-11T02:09:46.804Z,99274.48
2018-12-11T02:12:16.505Z,99277.37
2018-12-11T02:14:46.180Z,99273.78
2018-12-11T02:17:16.116Z,99261.69
2018-12-11T02:19:45.806Z,99278.34
2018-12-11T02:22:15.488Z,99268.32
2018-12-11T02:24:45.141Z,99269.75
2018-12-11T02:27:15.496Z,99275.13
2018-12-11T02:29:45.152Z,99274.19
2018-12-11T02:32:15.319Z,99272.20
2018-12-11T02:34:44.975Z,99272.31
2018-12-11T02:37:14.670Z,99259.12
2018-12-11T02:39:44.340Z,99277.52
2018-12-11T02:42:14.031Z,99279.03
2018-12-11T02:44:43.707Z,99262.54
2018-12-11T02:47:13.392Z,99273.69
2018-12-11T02:49:43.060Z,99268.23
2018-12-11T02:52:12.920Z,99269.05
2018-12-11T02:54:42.619Z,99269.25
2018-12-11T02:57:12.247Z,99260.91
2018-12-11T02:59:41.978Z,99268.44
2018-12-11T03:02:11.900Z,99257.05
2018-12-11T03:04:41.577Z,99263.41
2018-12-11T03:07:11.295Z,99257.53
2018-12-11T03:09:40.964Z,99254.94
2018-12-11T03:12:10.747Z,99256.29
2018-12-11T03:14:40.452Z,99261.13
2018-12-11T03:17:10.119Z,99268.87
2018-12-11T03:19:39.781Z,99264.73
2018-12-11T03:22:09.477Z,99263.41
2018-12-11T03:24:39.108Z,99260.29
2018-12-11T03:27:08.769Z,99261.84
2018-12-11T03:29:38.431Z,99263.80
2018-12-11T03:32:08.088Z,99261.55
2018-12-11T03:34:37.803Z,99273.92
2018-12-11T03:37:07.470Z,99272.47
2018-12-11T03:39:37.140Z,99264.41
2018-12-11T03:42:06.821Z,99278.06
2018-12-11T03:44:36.499Z,99285.02
2018-12-11T03:47:06.277Z,99278.06
2018-12-11T03:49:35.933Z,99275.88
2018-12-11T03:52:05.642Z,99267.53
2018-12-11T03:54:35.307Z,99278.80
2018-12-11T03:57:05.018Z,99269.89
2018-12-11T03:59:34.684Z,99273.95
2018-12-11T04:02:04.775Z,99271.99
2018-12-11T04:04:34.460Z,99272.70
2018-12-11T04:07:04.232Z,99279.12
2018-12-11T04:09:33.865Z,99281.19
2018-12-11T04:12:04.617Z,99288.32
2018-12-11T04:14:34.696Z,99291.38
2018-12-11T04:17:04.353Z,99301.63
2018-12-11T04:19:34.054Z,99292.32
2018-12-11T04:22:03.757Z,99303.88
2018-12-11T04:24:33.438Z,99304.31
2018-12-11T04:27:03.082Z,99301.22
2018-12-11T04:29:32.769Z,99300.49
2018-12-11T04:32:02.537Z,99307.21
2018-12-11T04:34:32.147Z,99302.22
2018-12-11T04:37:01.847Z,99301.22
2018-12-11T04:39:34.101Z,99317.63
2018-12-11T04:42:03.217Z,99295.30
2018-12-11T04:44:32.838Z,99305.75
2018-12-11T04:47:02.522Z,99311.35
2018-12-11T04:49:32.265Z,99309.69
2018-12-11T04:52:01.891Z,99310.63
2018-12-11T04:54:31.582Z,99312.10
2018-12-11T04:57:01.261Z,99313.31
2018-12-11T04:59:30.940Z,99311.25
2018-12-11T05:02:00.620Z,99314.27
2018-12-11T05:04:30.365Z,99327.30
2018-12-11T05:07:00.000Z,99327.72
2018-12-11T05:09:29.697Z,99324.51
2018-12-11T05:11:59.375Z,99320.28
2018-12-11T05:14:29.056Z,99332.25
2018-12-11T05:16:58.733Z,99344.23
2018-12-11T05:19:28.420Z,99342.59
2018-12-11T05:21:58.061Z,99344.87
2018-12-11T05:24:27.763Z,99355.80
2018-12-11T05:26:57.419Z,99345.39
2018-12-11T05:29:27.582Z,99351.77
2018-12-11T05:31:57.232Z,99349.72
2018-12-11T05:34:26.938Z,99362.30
2018-12-11T05:36:56.840Z,99361.48
2018-12-11T05:39:26.528Z,99356.83
2018-12-11T05:41:56.188Z,99370.90
2018-12-11T05:44:25.817Z,99379.15
2018-12-11T05:46:55.479Z,99376.55
2018-12-11T05:49:25.128Z,99384.31
2018-12-11T05:51:54.810Z,99390.31
2018-12-11T05:54:24.482Z,99387.00
2018-12-11T05:56:54.194Z,99393.91
2018-12-11T05:59:24.291Z,99402.78
2018-12-11T06:01:53.965Z,99414.47
2018-12-11T06:04:23.625Z,99402.67
2018-12-11T06:06:53.309Z,99420.56
2018-12-11T06:09:22.925Z,99419.41
2018-12-11T06:11:52.686Z,99271.58
2018-12-11T06:14:22.380Z,99433.16
2018-12-11T06:16:52.280Z,99444.20
2018-12-11T06:19:22.072Z,99433.88
2018-12-11T06:21:51.752Z,99438.95
2018-12-11T06:24:21.420Z,99437.70
2018-12-11T06:26:51.225Z,99447.81
2018-12-11T06:29:20.924Z,99444.93
2018-12-11T06:31:50.627Z,99447.41
2018-12-11T06:34:20.242Z,99456.17
2018-12-11T06:36:50.053Z,99460.31
2018-12-11T06:39:19.780Z,99458.87
2018-12-11T06:41:49.445Z,99459.39
2018-12-11T06:46:59.340Z,99467.73
2018-12-11T06:49:29.026Z,99461.41
2018-12-11T06:51:58.714Z,99478.59
2018-12-11T06:54:28.578Z,99473.58
2018-12-11T06:56:58.200Z,99487.32
2018-12-11T06:59:27.956Z,99486.24
2018-12-11T07:01:57.641Z,99478.17
2018-12-11T07:04:27.321Z,99482.38
2018-12-11T07:06:56.985Z,99483.76
2018-12-11T07:09:26.708Z,99485.83
2018-12-11T07:11:56.421Z,99476.91
2018-12-11T07:14:26.154Z,99478.75
2018-12-11T07:16:55.841Z,99481.86
2018-12-11T07:19:25.562Z,99481.89
2018-12-11T07:21:55.260Z,99483.93
2018-12-11T07:24:25.165Z,99487.67
2018-12-11T07:26:54.865Z,99499.26
2018-12-11T07:29:24.642Z,99492.88
2018-12-11T07:31:54.341Z,99479.18
2018-12-11T07:34:24.105Z,99494.19
2018-12-11T07:36:53.801Z,99493.13
2018-12-11T07:39:23.546Z,99500.35
2018-12-11T07:41:53.239Z,99488.77
2018-12-11T07:44:22.996Z,99504.27
2018-12-11T07:46:52.757Z,99503.36
2018-12-11T07:49:22.470Z,99504.87
2018-12-11T07:51:52.224Z,99379.06
2018-12-11T07:54:21.971Z,99509.97
2018-12-11T07:56:51.657Z,99498.95
2018-12-11T07:59:21.359Z,99512.30
2018-12-11T08:01:51.000Z,99509.48
2018-12-11T08:04:20.705Z,99398.73
2018-12-11T08:06:50.373Z,99534.38
2018-12-11T08:09:20.033Z,99527.88
2018-12-11T08:11:49.840Z,99534.85
2018-12-11T08:14:19.574Z,99532.39
2018-12-11T08:16:49.251Z,99530.28
2018-12-11T08:19:19.073Z,99538.94
2018-12-11T08:21:48.804Z,99543.30
2018-12-11T08:24:18.481Z,99549.55
2018-12-11T08:26:48.213Z,99556.77
2018-12-11T08:29:17.918Z,99543.83
2018-12-11T08:31:47.650Z,99535.34
2018-12-11T08:34:17.330Z,99538.75
2018-12-11T08:36:47.045Z,99542.25
2018-12-11T08:39:16.805Z,99538.02
2018-12-11T08:41:46.509Z,99539.28
2018-12-11T08:44:16.217Z,99456.54
2018-12-11T08:46:45.886Z,99552.36
2018-12-11T08:49:15.578Z,99526.70
2018-12-11T08:51:45.341Z,99535.93
2018-12-11T08:54:15.020Z,99546.10
2018-12-11T08:56:44.676Z,99543.30
2018-12-11T08:59:14.371Z,99421.50
2018-12-11T09:01:44.097Z,99544.49
2018-12-11T09:04:13.825Z,99532.52
2018-12-11T09:06:43.541Z,99539.44
2018-12-11T09:09:13.187Z,99540.05
2018-12-11T09:11:42.937Z,99530.02
2018-12-11T09:14:12.617Z,99524.95
2018-12-11T09:16:42.304Z,99519.41
2018-12-11T09:19:12.193Z,99492.37
2018-12-11T09:21:41.921Z,99491.52
2018-12-11T09:24:11.654Z,99504.53
2018-12-11T09:26:41.349Z,99493.89
2018-12-11T09:29:11.037Z,99513.77
2018-12-11T09:31:40.730Z,99514.84
2018-12-11T09:34:10.464Z,99425.88
2018-12-11T09:36:40.162Z,99510.20
2018-12-11T09:39:09.982Z,99495.27
2018-12-11T09:41:39.693Z,99527.30
2018-12-11T09:44:10.026Z,99507.90
2018-12-11T09:46:39.725Z,99511.27
2018-12-11T09:49:21.050Z,99521.04
2018-12-11T09:51:50.835Z,99506.06
2018-12-11T09:54:20.554Z,99501.10
2018-12-11T09:56:50.258Z,99487.47
2018-12-11T09:59:23.399Z,99489.74
2018-12-11T10:01:51.793Z,99478.95
2018-12-11T10:04:21.494Z,99493.25
2018-12-11T10:06:51.161Z,99491.37
2018-12-11T10:09:20.862Z,99493.89
2018-12-11T10:11:50.526Z,99491.19
2018-12-11T10:14:20.251Z,99360.86
2018-12-11T10:16:49.944Z,99476.61
2018-12-11T10:19:19.682Z,99462.06
2018-12-11T10:21:49.373Z,99467.39
2018-12-11T10:24:21.228Z,99462.72
2018-12-11T10:26:51.061Z,99342.84
2018-12-11T10:29:20.800Z,99469.41
2018-12-11T10:31:50.512Z,99469.19
2018-12-11T10:34:20.258Z,99464.14
2018-12-11T10:36:49.916Z,99464.66
2018-12-11T10:39:19.707Z,99461.08
2018-12-11T10:41:49.457Z,99454.59
2018-12-11T10:44:19.096Z,99459.64
2018-12-11T10:46:48.765Z,99460.44
2018-12-11T10:49:18.410Z,99444.92
2018-12-11T10:51:48.093Z,99461.56
2018-12-11T10:54:17.740Z,99468.09
2018-12-11T10:56:47.453Z,99465.23
2018-12-11T10:59:17.169Z,99468.91
2018-12-11T11:01:49.881Z,99470.23
2018-12-11T11:04:19.931Z,99469.67
2018-12-11T11:06:49.648Z,99462.54
2018-12-11T11:09:19.509Z,99483.10
2018-12-11T11:11:49.269Z,99481.09
2018-12-11T11:14:19.018Z,99475.31
2018-12-11T11:16:48.697Z,99455.28
2018-12-11T11:19:18.400Z,99474.25
2018-12-11T11:21:48.108Z,99469.98
2018-12-11T11:24:17.859Z,99468.47
2018-12-11T11:26:47.527Z,99469.88
2018-12-11T11:29:17.812Z,99479.65
2018-12-11T11:31:47.621Z,99470.48
2018-12-11T11:34:17.310Z,99471.77
2018-12-11T11:36:47.043Z,99470.70
2018-12-11T11:39:16.714Z,99468.88
2018-12-11T11:41:46.491Z,99475.16
2018-12-11T11:44:16.220Z,99468.34
2018-12-11T11:46:46.020Z,99468.13
2018-12-11T11:49:15.701Z,99482.98
2018-12-11T11:51:45.390Z,99484.86
2018-12-11T11:54:15.089Z,99471.48
2018-12-11T11:56:44.759Z,99486.94
2018-12-11T11:59:14.553Z,99476.04
2018-12-11T12:01:44.321Z,99456.09
2018-12-11T12:04:14.035Z,99496.69
2018-12-11T12:06:43.747Z,99494.36
2018-12-11T12:12:43.220Z,99491.59
2018-12-11T12:15:12.888Z,99493.03
2018-12-11T12:17:42.571Z,99482.38
2018-12-11T12:20:12.420Z,99503.06
2018-12-11T12:22:42.224Z,99489.41
2018-12-11T12:25:12.005Z,99500.38
2018-12-11T12:27:41.793Z,99513.56
2018-12-11T12:30:11.676Z,99507.94
2018-12-11T12:32:41.382Z,99499.46
2018-12-11T12:35:11.057Z,99514.69
2018-12-11T12:37:40.753Z,99509.28
2018-12-11T12:40:10.530Z,99517.69
2018-12-11T12:42:40.252Z,99519.33
2018-12-11T12:45:10.012Z,99525.88
2018-12-11T12:47:39.835Z,99532.02
2018-12-11T12:50:09.598Z,99527.58
2018-12-11T12:52:40.702Z,99527.22
2018-12-11T12:55:10.630Z,99526.63
2018-12-11T12:57:40.350Z,99537.79
2018-12-11T13:00:10.102Z,99530.73
2018-12-11T13:02:39.817Z,99540.19
2018-12-11T13:08:54.846Z,99540.94
2018-12-11T13:11:24.555Z,99538.98
2018-12-11T13:13:54.264Z,99550.53
2018-12-11T13:16:23.971Z,99545.52
2018-12-11T13:18:53.629Z,99547.08
2018-12-11T13:21:23.305Z,99546.63
2018-12-11T13:23:52.969Z,99543.94
2018-12-11T13:26:22.713Z,99559.52
2018-12-11T13:28:52.386Z,99553.81
2018-12-11T13:31:22.092Z,99559.73
2018-12-11T13:33:51.768Z,99567.09
2018-12-11T13:36:21.448Z,99572.66
2018-12-11T13:38:51.109Z,99564.78
2018-12-11T13:41:20.792Z,99566.30
2018-12-11T13:43:50.750Z,99556.89
2018-12-11T13:46:20.396Z,99456.97
2018-12-11T13:48:50.320Z,99579.22
2018-12-11T13:51:20.030Z,99582.12
2018-12-11T13:53:49.715Z,99437.66
2018-12-11T13:56:19.411Z,99577.95
2018-12-11T13:58:49.078Z,99572.02
2018-12-11T14:01:18.780Z,99575.57
2018-12-11T14:03:48.508Z,99581.63
2018-12-11T14:06:18.209Z,99591.72
2018-12-11T14:08:47.852Z,99588.05
2018-12-11T14:11:17.571Z,99601.04
2018-12-11T14:13:47.223Z,99593.08
2018-12-11T14:16:16.933Z,99594.48
2018-12-11T14:18:46.684Z,99596.97
2018-12-11T14:21:16.389Z,99594.12
2018-12-11T14:23:46.147Z,99600.44
2018-12-11T14:26:15.849Z,99603.59
2018-12-11T14:28:45.654Z,99611.80
2018-12-11T14:31:15.393Z,99611.92
2018-12-11T14:33:45.192Z,99615.79
2018-12-11T14:36:14.957Z,99620.56
2018-12-11T14:38:44.652Z,99508.38
2018-12-11T14:41:14.368Z,99488.80
2018-12-11T14:43:44.076Z,99618.23
2018-12-11T14:46:13.797Z,99615.97
2018-12-11T14:48:43.526Z,99618.44
2018-12-11T14:51:13.233Z,99621.36
2018-12-11T14:53:43.049Z,99616.27
2018-12-11T14:56:13.007Z,99621.77
2018-12-11T14:58:42.669Z,99623.14
2018-12-11T15:01:12.389Z,99621.43
2018-12-11T15:03:42.157Z,99619.67
2018-12-11T15:06:11.848Z,99529.14
2018-12-11T15:08:41.550Z,99618.02
2018-12-11T15:11:11.289Z,99620.00
2018-12-11T15:13:40.957Z,99619.37
2018-12-11T15:16:10.985Z,99625.93
2018-12-11T15:18:40.699Z,99621.40
2018-12-11T15:21:10.364Z,99621.91
2018-12-11T15:23:40.050Z,99614.58
2018-12-11T15:26:09.717Z,99620.27
2018-12-11T15:28:39.445Z,99618.31
2018-12-11T15:31:13.375Z,99622.34
2018-12-11T15:33:43.252Z,99627.30
2018-12-11T15:36:13.010Z,99631.14
2018-12-11T15:38:42.815Z,99630.52
2018-12-11T15:41:12.505Z,99640.03
2018-12-11T15:43:42.173Z,99635.80
2018-12-11T15:46:11.959Z,99631.55
2018-12-11T15:48:41.797Z,99631.34
2018-12-11T15:51:11.634Z,99523.66
2018-12-11T15:53:41.361Z,99629.25
2018-12-11T15:56:11.153Z,99635.87
2018-12-11T15:58:40.870Z,99643.02
2018-12-11T16:01:10.595Z,99640.83
2018-12-11T16:03:40.336Z,99645.18
2018-12-11T16:06:10.053Z,99650.91
2018-12-11T16:08:39.690Z,99653.61
2018-12-11T16:11:09.416Z,99651.64
2018-12-11T16:13:39.092Z,99669.72
2018-12-11T16:16:08.768Z,99666.11
2018-12-11T16:18:38.486Z,99677.34
2018-12-11T16:21:08.214Z,99665.27
2018-12-11T16:23:37.898Z,99671.69
2018-12-11T16:26:07.640Z,99671.06
2018-12-11T16:28:37.315Z,99677.27
2018-12-11T16:31:06.985Z,99681.28
2018-12-11T16:33:36.636Z,99671.59
2018-12-11T16:36:06.316Z,99674.70
2018-12-11T16:38:35.950Z,99675.09
2018-12-11T16:41:05.713Z,99679.03
2018-12-11T16:43:35.358Z,99673.84
2018-12-11T16:46:05.103Z,99675.19
2018-12-11T16:48:34.760Z,99678.50
2018-12-11T16:51:04.459Z,99671.16
2018-12-11T16:53:34.129Z,99681.09
2018-12-11T16:56:03.824Z,99686.85
2018-12-11T16:58:33.479Z,99685.94
2018-12-11T17:01:03.186Z,99683.97
2018-12-11T17:03:32.817Z,99680.36
2018-12-11T17:06:02.519Z,99696.13
2018-12-11T17:08:32.193Z,99698.00
2018-12-11T17:11:01.869Z,99706.08
2018-12-11T17:13:31.552Z,99698.02
2018-12-11T17:16:01.229Z,99703.20
2018-12-11T17:18:30.909Z,99697.11
2018-12-11T17:21:00.800Z,99696.48
2018-12-11T17:23:30.511Z,99703.83
2018-12-11T17:26:00.205Z,99701.86
2018-12-11T17:28:29.866Z,99709.55
2018-12-11T17:30:59.580Z,99712.34
2018-12-11T17:33:29.272Z,99713.41
2018-12-11T17:35:58.941Z,99716.81
2018-12-11T17:38:28.653Z,99718.06
2018-12-11T17:40:58.352Z,99713.49
2018-12-11T17:43:27.997Z,99720.95
2018-12-11T17:45:57.720Z,99728.38
2018-12-11T17:48:27.860Z,99724.02
2018-12-11T17:50:57.796Z,99724.22
2018-12-11T17:53:27.784Z,99731.59
2018-12-11T17:55:57.442Z,99739.84
2018-12-11T17:58:27.119Z,99730.71
2018-12-11T18:00:56.910Z,99739.10
2018-12-11T18:03:26.552Z,99737.15
2018-12-11T18:05:56.213Z,99740.36
2018-12-11T18:08:25.896Z,99739.31
2018-12-11T18:10:55.586Z,99741.89
2018-12-11T18:13:25.259Z,99740.05
2018-12-11T18:15:54.898Z,99749.98
2018-12-11T18:18:24.597Z,99747.60
2018-12-11T18:20:54.301Z,99756.31
2018-12-11T18:23:23.945Z,99752.78
2018-12-11T18:25:53.661Z,99765.80
2018-12-11T18:28:23.329Z,99757.19
2018-12-11T18:30:53.101Z,99773.03
2018-12-11T18:33:22.778Z,99768.24
2018-12-11T18:35:52.510Z,99780.03
2018-12-11T18:38:22.164Z,99782.55
2018-12-11T18:40:51.881Z,99791.31
2018-12-11T18:43:21.568Z,99799.30
2018-12-11T18:45:52.055Z,99791.16
2018-12-11T18:48:21.753Z,99790.78
2018-12-11T18:50:51.432Z,99794.70
2018-12-11T18:53:21.100Z,99793.84
2018-12-11T18:55:50.742Z,99786.12
2018-12-11T18:58:20.418Z,99795.00
2018-12-11T19:00:50.080Z,99793.92
2018-12-11T19:03:19.903Z,99806.45
2018-12-11T19:05:49.646Z,99800.26
2018-12-11T19:08:19.295Z,99800.26
2018-12-11T19:10:48.973Z,99788.91
2018-12-11T19:13:18.671Z,99793.55
2018-12-11T19:15:48.721Z,99797.38
2018-12-11T19:18:18.433Z,99791.41
2018-12-11T19:20:48.313Z,99790.06
2018-12-11T19:23:28.150Z,99780.44
2018-12-11T19:25:57.866Z,99794.39
2018-12-11T19:28:27.537Z,99782.94
2018-12-11T19:30:57.222Z,99787.59
2018-12-11T19:33:26.926Z,99789.11
2018-12-11T19:35:56.649Z,99786.83
2018-12-11T19:38:26.301Z,99798.42
2018-12-11T19:40:55.976Z,99803.50
2018-12-11T19:43:25.668Z,99812.80
2018-12-11T19:45:55.333Z,99800.30
2018-12-11T19:48:25.012Z,99793.38
2018-12-11T19:50:54.770Z,99789.52
2018-12-11T19:53:24.421Z,99787.29
2018-12-11T19:55:54.149Z,99796.31
2018-12-11T19:58:23.807Z,99792.17
2018-12-11T20:00:53.504Z,99798.36
2018-12-11T20:03:23.146Z,99792.22
2018-12-11T20:05:52.848Z,99798.59
2018-12-11T20:08:22.518Z,99804.79
2018-12-11T20:10:54.001Z,99803.52
2018-12-11T20:13:23.808Z,99798.97
2018-12-11T20:15:53.477Z,99805.84
2018-12-11T20:18:23.164Z,99800.27
2018-12-11T20:20:52.863Z,99806.77
2018-12-11T20:23:22.513Z,99795.91
2018-12-11T20:25:52.192Z,99807.29
2018-12-11T20:28:21.845Z,99819.97
2018-12-11T20:30:51.550Z,99806.73
2018-12-11T20:33:21.294Z,99798.93
2018-12-11T20:35:50.980Z,99817.25
2018-12-11T20:38:20.661Z,99798.38
2018-12-11T20:40:50.329Z,99805.54
2018-12-11T20:43:20.137Z,99810.80
2018-12-11T20:45:50.433Z,99810.16
2018-12-11T20:48:20.614Z,99808.97
2018-12-11T20:50:50.332Z,99818.66
2018-12-11T20:53:20.000Z,99819.30
2018-12-11T20:55:49.635Z,99815.12
2018-12-11T20:58:19.304Z,99807.92
2018-12-11T21:00:49.026Z,99817.73
2018-12-11T21:03:18.677Z,99822.95
2018-12-11T21:05:48.401Z,99824.81
2018-12-11T21:08:18.343Z,99820.38
2018-12-11T21:10:48.029Z,99830.89
2018-12-11T21:13:17.697Z,99827.23
2018-12-11T21:15:47.336Z,99832.04
2018-12-11T21:18:17.068Z,99839.65
2018-12-11T21:20:46.785Z,99837.93
2018-12-11T21:23:18.625Z,99841.44
2018-12-11T21:25:48.325Z,99842.84
2018-12-11T21:28:17.981Z,99846.88
2018-12-11T21:30:47.620Z,99834.81
2018-12-11T21:33:17.469Z,99838.66
2018-12-11T21:35:47.144Z,99842.81
2018-12-11T21:38:16.808Z,99838.84
2018-12-11T21:40:46.561Z,99841.94
2018-12-11T21:43:16.253Z,99836.45
2018-12-11T21:45:45.913Z,99842.00
2018-12-11T21:48:15.595Z,99836.62
2018-12-11T21:50:45.246Z,99836.05
2018-12-11T21:53:15.027Z,99832.91
2018-12-11T21:55:44.690Z,99834.44
2018-12-11T21:58:14.375Z,99830.54
2018-12-11T22:00:44.094Z,99835.78
2018-12-11T22:03:13.905Z,99827.42
2018-12-11T22:05:43.662Z,99821.78
2018-12-11T22:08:13.365Z,99808.50
2018-12-11T22:10:43.387Z,99826.63
2018-12-11T22:13:13.096Z,99808.19
2018-12-11T22:15:42.749Z,99812.21
2018-12-11T22:18:12.444Z,99827.38
2018-12-11T22:20:42.124Z,99829.82
2018-12-11T22:23:11.786Z,99813.03
2018-12-11T22:25:41.484Z,99815.24
2018-12-11T22:28:11.137Z,99814.73
2018-12-11T22:30:40.840Z,99805.98
2018-12-11T22:33:10.452Z,99806.67
2018-12-11T22:35:40.114Z,99822.57
2018-12-11T22:38:09.749Z,99817.39
2018-12-11T22:40:39.441Z,99819.78
2018-12-11T22:43:09.074Z,99817.01
2018-12-11T22:45:38.759Z,99815.28
2018-12-11T22:48:08.384Z,99802.73
2018-12-11T22:50:38.081Z,99819.22
2018-12-11T22:53:07.736Z,99821.83
2018-12-11T22:55:37.414Z,99810.41
2018-12-11T22:58:07.062Z,99823.09
2018-12-11T23:00:37.476Z,99825.42
2018-12-11T23:03:07.191Z,99823.62
2018-12-11T23:05:36.851Z,99826.20
2018-12-11T23:08:06.516Z,99829.78
2018-12-11T23:10:36.338Z,99835.19
2018-12-11T23:13:06.025Z,99821.88
2018-12-11T23:15:35.757Z,99824.68
2018-12-11T23:18:05.421Z,99826.07
2018-12-11T23:20:35.080Z,99821.77
2018-12-11T23:23:04.775Z,99808.55
2018-12-11T23:25:34.421Z,99811.47
2018-12-11T23:28:04.143Z,99806.11
2018-12-11T23:30:33.804Z,99815.23
2018-12-11T23:33:03.452Z,99814.24
2018-12-11T23:35:33.284Z,99818.21
2018-12-11T23:38:02.932Z,99818.08
2018-12-11T23:40:32.595Z,99817.26
2018-12-11T23:43:02.241Z,99828.02
2018-12-11T23:45:31.902Z,99814.94
2018-12-11T23:48:01.542Z,99829.09
2018-12-11T23:50:31.225Z,99826.50
2018-12-11T23:53:01.064Z,99808.53
2018-12-11T23:55:30.716Z,99831.17
2018-12-11T23:58:00.401Z,99838.42
